Keauhou, Hawaii
Current Conditions -  °F | °C
As of 1:53 AM on Sunday 21 Dec 2014 (Local Time) from PHKO Reporting Station
Scattered Clouds Scattered Clouds  
Wind Chill: 76°   Ceiling: Unl
Heat Index: 76°   Visibility: 10mi
Dew Point: 65°   Wind: 3mph
Humidity: 69%   Direction: 330°NNW
Pressure: 29.99"   Gusts: NA
Location:  19.56°N, 155.96°W
Report Text: PHKO 211153Z AUTO 33003KT 10SM SCT027 24/18 A2999 RMK AO2 SLP157 T02440183 10250 20233 58006 TSNO
Loading
Personal Weather Stations






























Interactive Weather Map New forecast layout! Learn more

10-Day Weather Forecast

Advertisements
Track Severe Weather on mobile